createdAt,value
2016-12-31T00:00:18.969Z,-1.27
2016-12-31T00:01:18.632Z,-1.31
2016-12-31T00:02:18.782Z,-1.38
2016-12-31T00:03:18.752Z,-1.38
2016-12-31T00:04:18.999Z,-1.36
2016-12-31T00:05:18.687Z,-1.36
2016-12-31T00:06:19.219Z,-1.39
2016-12-31T00:07:18.702Z,-1.41
2016-12-31T00:08:18.881Z,-1.31
2016-12-31T00:09:18.757Z,-1.39
2016-12-31T00:10:18.780Z,-1.41
2016-12-31T00:11:18.959Z,-1.49
2016-12-31T00:12:18.821Z,-1.33
2016-12-31T00:13:18.645Z,-1.28
2016-12-31T00:14:18.730Z,-1.31
2016-12-31T00:15:19.045Z,-1.33
2016-12-31T00:16:18.959Z,-1.3
2016-12-31T00:17:18.943Z,-1.33
2016-12-31T00:18:18.624Z,-1.35
2016-12-31T00:19:18.642Z,-1.33
2016-12-31T00:20:18.657Z,-1.3
2016-12-31T00:21:18.633Z,-1.28
2016-12-31T00:22:18.635Z,-1.25
2016-12-31T00:23:18.612Z,-1.28
2016-12-31T00:24:18.634Z,-1.27
2016-12-31T00:25:18.641Z,-1.24
2016-12-31T00:26:18.676Z,-1.23
2016-12-31T00:27:18.646Z,-1.28
2016-12-31T00:28:18.624Z,-1.3
2016-12-31T00:29:25.080Z,-1.31
2016-12-31T00:30:24.505Z,-1.28
2016-12-31T00:31:24.573Z,-1.28
2016-12-31T00:32:18.655Z,-1.09
2016-12-31T00:33:21.125Z,-1.31
2016-12-31T00:34:24.742Z,-1.36
2016-12-31T00:35:24.740Z,-1.21
2016-12-31T00:36:25.521Z,-1.23
2016-12-31T00:37:29.109Z,-1.31
2016-12-31T00:38:25.431Z,-1.24
2016-12-31T00:39:25.800Z,-1.2
2016-12-31T00:40:26.234Z,-1.24
2016-12-31T00:41:26.466Z,-1.25
2016-12-31T00:42:25.573Z,-1.25
2016-12-31T00:43:26.504Z,-1.31
2016-12-31T00:44:26.386Z,-1.28
2016-12-31T00:45:23.747Z,-1.33
2016-12-31T00:46:23.354Z,-1.3
2016-12-31T00:47:23.686Z,-1.36
2016-12-31T00:48:24.633Z,-1.33
2016-12-31T00:49:25.849Z,-1.39
2016-12-31T00:50:26.306Z,-1.48
2016-12-31T00:51:25.810Z,-1.43
2016-12-31T00:52:26.009Z,-1.48
2016-12-31T00:53:25.149Z,-1.42
2016-12-31T00:54:24.541Z,-1.49
2016-12-31T00:55:25.126Z,-1.45
2016-12-31T00:56:25.593Z,-1.39
2016-12-31T00:57:24.268Z,-1.41
2016-12-31T00:58:19.244Z,-1.43
2016-12-31T00:59:18.654Z,-1.46
2016-12-31T01:00:18.676Z,-1.46
2016-12-31T01:01:18.663Z,-1.53
2016-12-31T01:02:18.689Z,-1.46
2016-12-31T01:03:18.677Z,-1.42
2016-12-31T01:04:18.670Z,-1.49
2016-12-31T01:05:18.689Z,-1.51
2016-12-31T01:06:18.669Z,-1.53
2016-12-31T01:07:18.698Z,-1.49
2016-12-31T01:08:18.644Z,-1.53
2016-12-31T01:09:18.649Z,-1.51
2016-12-31T01:10:18.679Z,-1.59
2016-12-31T01:11:18.649Z,-1.62
2016-12-31T01:12:18.649Z,-1.57
2016-12-31T01:13:18.641Z,-1.43
2016-12-31T01:14:18.684Z,-1.35
2016-12-31T01:15:18.701Z,-1.31
2016-12-31T01:16:18.676Z,-1.33
2016-12-31T01:17:18.683Z,-1.31
2016-12-31T01:18:18.669Z,-1.38
2016-12-31T01:19:18.668Z,-1.23
2016-12-31T01:20:18.682Z,-1.3
2016-12-31T01:21:18.669Z,-1.33
2016-12-31T01:22:18.683Z,-1.31
2016-12-31T01:23:18.675Z,-1.48
2016-12-31T01:24:18.663Z,-1.46
2016-12-31T01:25:18.688Z,-1.49
2016-12-31T01:26:18.675Z,-1.48
2016-12-31T01:27:18.667Z,-1.38
2016-12-31T01:28:18.702Z,-1.53
2016-12-31T01:29:18.694Z,-1.62
2016-12-31T01:30:18.731Z,-1.56
2016-12-31T01:31:18.677Z,-1.66
2016-12-31T01:32:18.676Z,-1.74
2016-12-31T01:33:18.691Z,-1.64
2016-12-31T01:34:18.705Z,-1.57
2016-12-31T01:35:18.680Z,-1.74
2016-12-31T01:36:18.702Z,-1.59
2016-12-31T01:37:18.671Z,-1.6
2016-12-31T01:38:18.672Z,-1.63
2016-12-31T01:39:18.692Z,-1.67
2016-12-31T01:40:18.713Z,-1.63
2016-12-31T01:41:18.676Z,-1.74
2016-12-31T01:42:18.710Z,-1.72
2016-12-31T01:43:18.676Z,-1.75
2016-12-31T01:44:18.701Z,-1.72
2016-12-31T01:45:18.707Z,-1.66
2016-12-31T01:46:18.684Z,-1.62
2016-12-31T01:47:18.681Z,-1.67
2016-12-31T01:48:18.697Z,-1.69
2016-12-31T01:49:18.688Z,-1.66
2016-12-31T01:50:18.709Z,-1.64
2016-12-31T01:51:18.685Z,-1.72
2016-12-31T01:52:18.692Z,-1.63
2016-12-31T01:53:18.686Z,-1.59
2016-12-31T01:54:18.706Z,-1.66
2016-12-31T01:55:18.701Z,-1.69
2016-12-31T01:56:18.678Z,-1.66
2016-12-31T01:57:18.685Z,-1.67
2016-12-31T01:58:18.677Z,-1.67
2016-12-31T01:59:18.700Z,-1.63
2016-12-31T02:00:18.720Z,-1.67
2016-12-31T02:01:18.686Z,-1.64
2016-12-31T02:02:18.703Z,-1.63
2016-12-31T02:03:18.696Z,-1.59
2016-12-31T02:04:18.708Z,-1.49
2016-12-31T02:05:18.707Z,-1.36
2016-12-31T02:06:18.689Z,-1.42
2016-12-31T02:07:18.695Z,-1.25
2016-12-31T02:08:18.702Z,-1.1
2016-12-31T02:09:18.724Z,-1.24
2016-12-31T02:10:18.764Z,-1.17
2016-12-31T02:11:18.720Z,-1.17
2016-12-31T02:12:18.713Z,-1.05
2016-12-31T02:13:18.694Z,-1.1
2016-12-31T02:14:18.704Z,-0.97
2016-12-31T02:15:18.726Z,-0.91
2016-12-31T02:16:18.689Z,-0.97
2016-12-31T02:17:18.724Z,-1
2016-12-31T02:18:18.720Z,-0.89
2016-12-31T02:19:18.738Z,-0.77
2016-12-31T02:20:18.768Z,-0.66
2016-12-31T02:21:18.709Z,-0.62
2016-12-31T02:22:18.722Z,-0.72
2016-12-31T02:23:18.710Z,-0.65
2016-12-31T02:24:18.715Z,-0.62
2016-12-31T02:25:18.721Z,-0.55
2016-12-31T02:26:18.703Z,-0.59
2016-12-31T02:27:18.703Z,-0.47
2016-12-31T02:28:18.694Z,-0.39
2016-12-31T02:29:18.702Z,-0.45
2016-12-31T02:30:18.721Z,-0.29
2016-12-31T02:31:18.688Z,-0.18
2016-12-31T02:32:18.708Z,-0.04
2016-12-31T02:33:18.700Z,-0.12
2016-12-31T02:34:18.693Z,-0.13
2016-12-31T02:35:18.714Z,-0.05
2016-12-31T02:36:18.721Z,-0.04
2016-12-31T02:37:18.713Z,0
2016-12-31T02:38:18.734Z,0.05
2016-12-31T02:39:18.713Z,0.05
2016-12-31T02:40:18.747Z,0.09
2016-12-31T02:41:18.740Z,0.03
2016-12-31T02:42:18.736Z,0.2
2016-12-31T02:43:18.767Z,0.2
2016-12-31T02:44:18.737Z,0.18
2016-12-31T02:45:18.722Z,0.13
2016-12-31T02:46:18.718Z,0.13
2016-12-31T02:47:18.728Z,0.23
2016-12-31T02:48:18.748Z,0.21
2016-12-31T02:49:18.734Z,0.27
2016-12-31T02:50:18.731Z,0.25
2016-12-31T02:51:18.720Z,0.23
2016-12-31T02:52:18.713Z,0.42
2016-12-31T02:53:18.719Z,0.28
2016-12-31T02:54:18.726Z,0.3
2016-12-31T02:55:18.718Z,0.38
2016-12-31T02:56:18.711Z,0.42
2016-12-31T02:57:18.702Z,0.53
2016-12-31T02:58:18.725Z,0.49
2016-12-31T02:59:18.731Z,0.48
2016-12-31T03:00:18.739Z,0.53
2016-12-31T03:01:18.713Z,0.48
2016-12-31T03:02:18.707Z,0.61
2016-12-31T03:03:18.713Z,0.62
2016-12-31T03:04:18.718Z,0.51
2016-12-31T03:05:18.767Z,0.57
2016-12-31T03:06:18.717Z,0.52
2016-12-31T03:07:18.710Z,0.68
2016-12-31T03:08:18.744Z,0.48
2016-12-31T03:09:18.706Z,0.72
2016-12-31T03:10:18.743Z,0.7
2016-12-31T03:11:18.737Z,0.57
2016-12-31T03:12:18.722Z,0.72
2016-12-31T03:13:18.733Z,0.58
2016-12-31T03:14:18.726Z,0.71
2016-12-31T03:15:18.747Z,0.78
2016-12-31T03:16:18.718Z,0.86
2016-12-31T03:17:18.736Z,0.8
2016-12-31T03:18:18.731Z,0.78
2016-12-31T03:19:18.758Z,0.83
2016-12-31T03:20:18.787Z,0.78
2016-12-31T03:21:18.752Z,0.79
2016-12-31T03:22:18.752Z,0.78
2016-12-31T03:23:18.730Z,0.85
2016-12-31T03:24:18.767Z,0.65
2016-12-31T03:25:18.747Z,0.82
2016-12-31T03:26:18.721Z,0.83
2016-12-31T03:27:18.757Z,0.83
2016-12-31T03:28:18.720Z,0.83
2016-12-31T03:29:18.727Z,0.82
2016-12-31T03:30:18.769Z,0.75
2016-12-31T03:31:18.726Z,0.79
2016-12-31T03:32:18.736Z,0.76
2016-12-31T03:33:18.737Z,0.72
2016-12-31T03:34:18.730Z,0.72
2016-12-31T03:35:18.756Z,0.79
2016-12-31T03:36:18.747Z,0.83
2016-12-31T03:37:18.740Z,0.79
2016-12-31T03:38:18.728Z,0.75
2016-12-31T03:39:18.739Z,1
2016-12-31T03:40:18.742Z,0.92
2016-12-31T03:41:18.749Z,0.8
2016-12-31T03:42:18.745Z,0.83
2016-12-31T03:43:18.749Z,0.89
2016-12-31T03:44:18.777Z,0.72
2016-12-31T03:45:18.777Z,0.94
2016-12-31T03:46:18.768Z,0.89
2016-12-31T03:47:18.747Z,0.89
2016-12-31T03:48:18.744Z,0.85
2016-12-31T03:49:18.764Z,0.92
2016-12-31T03:50:18.770Z,0.98
2016-12-31T03:51:18.748Z,0.92
2016-12-31T03:52:18.753Z,0.92
2016-12-31T03:53:18.745Z,0.86
2016-12-31T03:54:18.737Z,0.9
2016-12-31T03:55:18.758Z,0.92
2016-12-31T03:56:18.750Z,0.94
2016-12-31T03:57:18.747Z,0.94
2016-12-31T03:58:18.749Z,1.06
2016-12-31T03:59:18.756Z,0.97
2016-12-31T04:00:18.764Z,0.94
2016-12-31T04:01:19.742Z,0.89
2016-12-31T04:02:18.778Z,1
2016-12-31T04:03:18.769Z,1.01
2016-12-31T04:04:18.768Z,0.97
2016-12-31T04:05:18.800Z,0.97
2016-12-31T04:06:18.761Z,0.86
2016-12-31T04:07:18.769Z,1.04
2016-12-31T04:08:18.776Z,1.1
2016-12-31T04:09:18.779Z,0.83
2016-12-31T04:10:18.780Z,1.01
2016-12-31T04:11:18.795Z,0.9
2016-12-31T04:12:18.793Z,0.96
2016-12-31T04:13:18.787Z,0.83
2016-12-31T04:14:18.791Z,0.96
2016-12-31T04:15:18.820Z,0.86
2016-12-31T04:16:18.788Z,0.86
2016-12-31T04:17:18.766Z,0.9
2016-12-31T04:18:18.788Z,0.9
2016-12-31T04:19:18.765Z,1.01
2016-12-31T04:20:18.773Z,0.88
2016-12-31T04:21:18.765Z,0.83
2016-12-31T04:22:18.771Z,0.89
2016-12-31T04:23:18.779Z,0.9
2016-12-31T04:24:18.773Z,0.89
2016-12-31T04:25:18.812Z,0.7
2016-12-31T04:26:18.799Z,0.83
2016-12-31T04:27:18.840Z,0.94
2016-12-31T04:28:18.790Z,0.82
2016-12-31T04:29:18.787Z,0.82
2016-12-31T04:30:18.809Z,0.9
2016-12-31T04:31:18.773Z,0.88
2016-12-31T04:32:18.774Z,0.85
2016-12-31T04:33:18.791Z,0.7
2016-12-31T04:34:18.794Z,0.78
2016-12-31T04:35:18.815Z,0.75
2016-12-31T04:36:18.792Z,0.86
2016-12-31T04:37:18.778Z,0.96
2016-12-31T04:38:18.783Z,0.88
2016-12-31T04:39:18.788Z,0.76
2016-12-31T04:40:18.811Z,0.94
2016-12-31T04:41:18.792Z,0.83
2016-12-31T04:42:18.794Z,0.85
2016-12-31T04:43:18.790Z,0.86
2016-12-31T04:44:18.778Z,0.83
2016-12-31T04:45:18.803Z,0.83
2016-12-31T04:46:18.780Z,0.76
2016-12-31T04:47:18.779Z,0.96
2016-12-31T04:48:18.804Z,0.83
2016-12-31T04:49:18.811Z,0.78
2016-12-31T04:50:18.809Z,0.82
2016-12-31T04:51:18.818Z,0.83
2016-12-31T04:52:18.816Z,0.98
2016-12-31T04:53:18.814Z,0.83
2016-12-31T04:54:18.845Z,0.79
2016-12-31T04:55:18.825Z,0.89
2016-12-31T04:56:18.817Z,0.79
2016-12-31T04:57:18.838Z,0.85
2016-12-31T04:58:18.845Z,0.83
2016-12-31T04:59:18.822Z,0.96
2016-12-31T05:00:18.857Z,0.79
2016-12-31T05:01:18.836Z,0.72
2016-12-31T05:02:18.830Z,0.82
2016-12-31T05:03:18.801Z,0.72
2016-12-31T05:04:18.830Z,0.75
2016-12-31T05:05:18.823Z,0.78
2016-12-31T05:06:18.813Z,0.68
2016-12-31T05:07:18.809Z,0.57
2016-12-31T05:08:18.801Z,0.64
2016-12-31T05:09:18.778Z,0.6
2016-12-31T05:10:18.815Z,0.71
2016-12-31T05:11:18.810Z,0.58
2016-12-31T05:12:18.870Z,0.6
2016-12-31T05:13:18.819Z,0.64
2016-12-31T05:14:18.791Z,0.62
2016-12-31T05:15:18.825Z,0.64
2016-12-31T05:16:18.803Z,0.64
2016-12-31T05:17:18.796Z,0.48
2016-12-31T05:18:18.847Z,0.53
2016-12-31T05:19:18.820Z,0.6
2016-12-31T05:20:18.850Z,0.51
2016-12-31T05:21:18.827Z,0.64
2016-12-31T05:22:18.815Z,0.53
2016-12-31T05:23:18.805Z,0.57
2016-12-31T05:24:18.800Z,0.61
2016-12-31T05:25:18.826Z,0.61
2016-12-31T05:26:18.850Z,0.75
2016-12-31T05:27:18.823Z,0.62
2016-12-31T05:28:18.857Z,0.53
2016-12-31T05:29:18.834Z,0.72
2016-12-31T05:30:18.884Z,0.57
2016-12-31T05:31:18.836Z,0.72
2016-12-31T05:32:18.846Z,0.78
2016-12-31T05:33:18.840Z,0.83
2016-12-31T05:34:18.823Z,0.83
2016-12-31T05:35:18.863Z,0.79
2016-12-31T05:36:18.872Z,0.79
2016-12-31T05:37:18.902Z,0.85
2016-12-31T05:38:18.854Z,0.71
2016-12-31T05:39:18.856Z,0.82
2016-12-31T05:40:18.824Z,0.8
2016-12-31T05:41:18.802Z,0.94
2016-12-31T05:42:18.829Z,0.82
2016-12-31T05:43:18.850Z,0.8
2016-12-31T05:44:18.831Z,0.88
2016-12-31T05:45:19.637Z,0.78
2016-12-31T05:46:18.815Z,0.88
2016-12-31T05:47:18.826Z,0.82
2016-12-31T05:48:18.834Z,0.8
2016-12-31T05:49:18.812Z,1.01
2016-12-31T05:50:18.811Z,1.07
2016-12-31T05:51:18.841Z,0.92
2016-12-31T05:52:18.860Z,1
2016-12-31T05:53:18.826Z,1
2016-12-31T05:54:18.816Z,0.96
2016-12-31T05:55:18.856Z,1.03
2016-12-31T05:56:18.805Z,1.01
2016-12-31T05:57:18.836Z,0.98
2016-12-31T05:58:18.818Z,1.04
2016-12-31T05:59:18.810Z,1.03
2016-12-31T06:00:18.870Z,0.97
2016-12-31T06:01:18.825Z,0.92
2016-12-31T06:02:18.825Z,1.1
2016-12-31T06:03:18.816Z,1.01
2016-12-31T06:04:18.824Z,0.97
2016-12-31T06:05:18.801Z,0.92
2016-12-31T06:06:18.822Z,1.01
2016-12-31T06:07:18.820Z,0.89
2016-12-31T06:08:18.823Z,0.92
2016-12-31T06:09:18.809Z,0.97
2016-12-31T06:10:18.825Z,0.82
2016-12-31T06:11:18.816Z,0.89
2016-12-31T06:12:18.822Z,0.92
2016-12-31T06:13:18.819Z,0.86
2016-12-31T06:14:18.823Z,0.8
2016-12-31T06:15:18.828Z,0.78
2016-12-31T06:16:18.837Z,0.83
2016-12-31T06:17:18.831Z,0.83
2016-12-31T06:18:18.837Z,0.65
2016-12-31T06:19:18.862Z,0.83
2016-12-31T06:20:18.839Z,0.67
2016-12-31T06:21:18.842Z,0.61
2016-12-31T06:22:18.838Z,0.52
2016-12-31T06:23:18.834Z,0.46
2016-12-31T06:24:18.831Z,0.65
2016-12-31T06:25:18.822Z,0.61
2016-12-31T06:26:18.864Z,0.64
2016-12-31T06:27:18.890Z,0.67
2016-12-31T06:28:18.859Z,0.65
2016-12-31T06:29:18.837Z,0.58
2016-12-31T06:30:18.849Z,0.57
2016-12-31T06:31:18.855Z,0.61
2016-12-31T06:32:18.850Z,0.61
2016-12-31T06:33:18.851Z,0.53
2016-12-31T06:34:18.849Z,0.58
2016-12-31T06:35:18.864Z,0.62
2016-12-31T06:36:18.855Z,0.43
2016-12-31T06:37:18.846Z,0.43
2016-12-31T06:38:18.853Z,0.48
2016-12-31T06:39:18.845Z,0.42
2016-12-31T06:40:18.867Z,0.42
2016-12-31T06:41:18.850Z,0.49
2016-12-31T06:42:18.842Z,0.42
2016-12-31T06:43:18.873Z,0.33
2016-12-31T06:44:18.850Z,0.45
2016-12-31T06:45:18.872Z,0.46
2016-12-31T06:46:18.911Z,0.43
2016-12-31T06:47:18.852Z,0.3
2016-12-31T06:48:18.852Z,0.31
2016-12-31T06:49:18.853Z,0.33
2016-12-31T06:50:18.859Z,0.2
2016-12-31T06:51:18.843Z,0.12
2016-12-31T06:52:18.849Z,0.16
2016-12-31T06:53:18.859Z,0.16
2016-12-31T06:54:18.857Z,0.18
2016-12-31T06:55:18.872Z,0.15
2016-12-31T06:56:18.849Z,0.18
2016-12-31T06:57:18.859Z,0.13
2016-12-31T06:58:18.876Z,0.24
2016-12-31T06:59:18.868Z,0.12
2016-12-31T07:00:18.874Z,0.03
2016-12-31T07:01:18.839Z,0.24
2016-12-31T07:02:18.873Z,0.21
2016-12-31T07:03:18.848Z,0.15
2016-12-31T07:04:18.861Z,0.1
2016-12-31T07:05:18.887Z,0.25
2016-12-31T07:06:18.870Z,0.24
2016-12-31T07:07:18.940Z,0.2
2016-12-31T07:08:18.876Z,0.27
2016-12-31T07:09:18.882Z,0.38
2016-12-31T07:10:18.865Z,0.31
2016-12-31T07:11:18.879Z,0.31
2016-12-31T07:12:18.881Z,0.33
2016-12-31T07:13:18.863Z,0.36
2016-12-31T07:14:18.856Z,0.49
2016-12-31T07:15:18.873Z,0.45
2016-12-31T07:16:18.883Z,0.33
2016-12-31T07:17:18.867Z,0.53
2016-12-31T07:18:18.931Z,0.43
2016-12-31T07:19:18.870Z,0.34
2016-12-31T07:20:18.893Z,0.46
2016-12-31T07:21:18.865Z,0.51
2016-12-31T07:22:18.885Z,0.49
2016-12-31T07:23:18.875Z,0.52
2016-12-31T07:24:18.903Z,0.58
2016-12-31T07:25:18.868Z,0.53
2016-12-31T07:26:18.896Z,0.62
2016-12-31T07:27:18.878Z,0.61
2016-12-31T07:28:18.898Z,0.67
2016-12-31T07:29:18.898Z,0.57
2016-12-31T07:30:18.893Z,0.71
2016-12-31T07:31:18.872Z,0.6
2016-12-31T07:32:18.875Z,0.62
2016-12-31T07:33:18.884Z,0.61
2016-12-31T07:34:18.873Z,0.71
2016-12-31T07:35:18.916Z,0.71
2016-12-31T07:36:18.862Z,0.78
2016-12-31T07:37:18.888Z,0.7
2016-12-31T07:38:18.891Z,0.7
2016-12-31T07:39:18.895Z,0.71
2016-12-31T07:40:18.901Z,0.78
2016-12-31T07:41:18.895Z,0.7
2016-12-31T07:42:18.885Z,0.71
2016-12-31T07:43:18.901Z,0.61
2016-12-31T07:44:18.917Z,0.88
2016-12-31T07:45:18.920Z,0.75
2016-12-31T07:46:18.913Z,0.78
2016-12-31T07:47:18.905Z,0.85
2016-12-31T07:48:18.904Z,0.64
2016-12-31T07:49:18.914Z,0.83
2016-12-31T07:50:18.895Z,0.9
2016-12-31T07:51:18.916Z,0.76
2016-12-31T07:52:18.892Z,0.78
2016-12-31T07:53:18.926Z,0.82
2016-12-31T07:54:18.937Z,0.97
2016-12-31T07:55:18.928Z,0.88
2016-12-31T07:56:18.897Z,0.75
2016-12-31T07:57:18.896Z,0.83
2016-12-31T07:58:18.916Z,0.88
2016-12-31T07:59:18.926Z,0.92
2016-12-31T08:00:18.942Z,0.86
2016-12-31T08:01:18.890Z,0.71
2016-12-31T08:02:18.891Z,0.78
2016-12-31T08:03:18.932Z,0.76
2016-12-31T08:04:18.909Z,0.72
2016-12-31T08:05:18.913Z,0.67
2016-12-31T08:06:18.907Z,0.79
2016-12-31T08:07:18.898Z,0.71
2016-12-31T08:08:18.896Z,0.78
2016-12-31T08:09:18.915Z,0.76
2016-12-31T08:10:18.904Z,0.79
2016-12-31T08:11:18.926Z,0.89
2016-12-31T08:12:18.904Z,0.78
2016-12-31T08:13:18.940Z,0.8
2016-12-31T08:14:18.920Z,0.75
2016-12-31T08:15:18.956Z,0.79
2016-12-31T08:16:18.900Z,0.86
2016-12-31T08:17:18.907Z,0.89
2016-12-31T08:18:19.023Z,0.79
2016-12-31T08:19:18.905Z,0.85
2016-12-31T08:20:18.928Z,0.83
2016-12-31T08:21:18.920Z,0.82
2016-12-31T08:22:18.909Z,0.82
2016-12-31T08:23:18.917Z,0.83
2016-12-31T08:24:18.915Z,0.78
2016-12-31T08:25:18.922Z,0.78
2016-12-31T08:26:18.957Z,0.82
2016-12-31T08:27:18.937Z,0.71
2016-12-31T08:28:18.936Z,0.76
2016-12-31T08:29:18.933Z,0.79
2016-12-31T08:30:18.935Z,0.82
2016-12-31T08:31:18.946Z,0.89
2016-12-31T08:32:18.944Z,0.72
2016-12-31T08:33:18.962Z,0.82
2016-12-31T08:34:18.928Z,0.8
2016-12-31T08:35:18.947Z,0.82
2016-12-31T08:36:18.927Z,0.83
2016-12-31T08:37:18.920Z,0.86
2016-12-31T08:38:18.925Z,0.98
2016-12-31T08:39:18.942Z,0.96
2016-12-31T08:40:18.939Z,0.9
2016-12-31T08:41:18.922Z,1.03
2016-12-31T08:42:18.915Z,0.8
2016-12-31T08:43:18.982Z,0.89
2016-12-31T08:44:18.972Z,1
2016-12-31T08:45:18.934Z,1.06
2016-12-31T08:46:18.960Z,0.9
2016-12-31T08:47:18.932Z,1.06
2016-12-31T08:48:18.925Z,1.12
2016-12-31T08:49:18.947Z,1.03
2016-12-31T08:50:18.939Z,1.01
2016-12-31T08:51:18.927Z,1.01
2016-12-31T08:52:18.925Z,1.06
2016-12-31T08:53:18.926Z,0.96
2016-12-31T08:54:18.937Z,1
2016-12-31T08:55:18.953Z,1.01
2016-12-31T08:56:18.961Z,1.06
2016-12-31T08:57:18.940Z,1.12
2016-12-31T08:58:19.023Z,0.98
2016-12-31T08:59:18.949Z,1.01
2016-12-31T09:00:18.945Z,1.03
2016-12-31T09:01:18.925Z,1.07
2016-12-31T09:02:18.941Z,1.16
2016-12-31T09:03:18.954Z,0.96
2016-12-31T09:04:18.954Z,1.04
2016-12-31T09:05:18.958Z,1.08
2016-12-31T09:06:18.982Z,1.1
2016-12-31T09:07:18.978Z,1
2016-12-31T09:08:18.936Z,1
2016-12-31T09:09:18.967Z,1.14
2016-12-31T09:10:18.945Z,1.06
2016-12-31T09:11:18.973Z,1.03
2016-12-31T09:12:18.950Z,1.03
2016-12-31T09:13:18.953Z,1.1
2016-12-31T09:14:18.963Z,1.12
2016-12-31T09:15:18.950Z,0.96
2016-12-31T09:16:18.957Z,0.94
2016-12-31T09:17:18.950Z,1.1
2016-12-31T09:18:18.957Z,1.07
2016-12-31T09:19:18.946Z,1
2016-12-31T09:20:18.953Z,0.94
2016-12-31T09:21:18.946Z,1.06
2016-12-31T09:22:18.967Z,0.97
2016-12-31T09:23:19.006Z,0.97
2016-12-31T09:24:18.948Z,1
2016-12-31T09:25:18.957Z,1.16
2016-12-31T09:26:19.687Z,0.85
2016-12-31T09:27:19.026Z,1.03
2016-12-31T09:28:18.986Z,1.08
2016-12-31T09:29:18.967Z,1.16
2016-12-31T09:30:18.969Z,1.18
2016-12-31T09:31:18.963Z,0.98
2016-12-31T09:32:18.983Z,1.12
2016-12-31T09:33:18.979Z,1.04
2016-12-31T09:34:18.980Z,1.01
2016-12-31T09:35:18.978Z,1.06
2016-12-31T09:36:18.968Z,1.14
2016-12-31T09:37:18.971Z,1.12
2016-12-31T09:38:19.100Z,1.07
2016-12-31T09:39:18.956Z,1.14
2016-12-31T09:40:19.036Z,1.16
2016-12-31T09:41:18.968Z,1.21
2016-12-31T09:42:18.975Z,1.19
2016-12-31T09:43:18.968Z,1.21
2016-12-31T09:44:18.989Z,1.25
2016-12-31T09:45:18.980Z,1.28
2016-12-31T09:46:18.972Z,1.4
2016-12-31T09:47:19.030Z,1.36
2016-12-31T09:48:18.989Z,1.21
2016-12-31T09:49:19.092Z,1.24
2016-12-31T09:50:19.001Z,1.22
2016-12-31T09:51:19.478Z,1.33
2016-12-31T09:52:19.395Z,1.33
2016-12-31T09:53:19.363Z,1.24
2016-12-31T09:54:19.301Z,1.42
2016-12-31T09:55:19.271Z,1.42
2016-12-31T09:56:19.248Z,1.25
2016-12-31T09:57:19.211Z,1.43
2016-12-31T09:58:19.155Z,1.47
2016-12-31T09:59:19.152Z,1.22
2016-12-31T10:00:19.170Z,1.36
2016-12-31T10:01:19.029Z,1.29
2016-12-31T10:02:19.155Z,1.19
2016-12-31T10:03:19.056Z,1.21
2016-12-31T10:04:19.195Z,1.36
2016-12-31T10:05:19.009Z,1.29
2016-12-31T10:06:19.196Z,1.33
2016-12-31T10:07:19.395Z,1.36
2016-12-31T10:08:19.247Z,1.34
2016-12-31T10:09:19.177Z,1.28
2016-12-31T10:10:19.132Z,1.36
2016-12-31T10:11:19.178Z,1.36
2016-12-31T10:12:19.185Z,1.36
2016-12-31T10:13:19.268Z,1.21
2016-12-31T10:14:19.137Z,1.51
2016-12-31T10:15:19.134Z,1.47
2016-12-31T10:16:19.257Z,1.39
2016-12-31T10:17:19.104Z,1.4
2016-12-31T10:18:19.114Z,1.43
2016-12-31T10:19:19.121Z,1.5
2016-12-31T10:20:19.177Z,1.5
2016-12-31T10:21:19.192Z,1.46
2016-12-31T10:22:19.311Z,1.57
2016-12-31T10:23:19.106Z,1.5
2016-12-31T10:24:19.244Z,1.55
2016-12-31T10:25:19.207Z,1.47
2016-12-31T10:26:19.134Z,1.43
2016-12-31T10:27:19.214Z,1.43
2016-12-31T10:28:19.147Z,1.55
2016-12-31T10:29:19.163Z,1.43
2016-12-31T10:30:19.180Z,1.5
2016-12-31T10:31:19.182Z,1.44
2016-12-31T10:32:19.234Z,1.46
2016-12-31T10:33:19.347Z,1.39
2016-12-31T10:34:19.196Z,1.37
2016-12-31T10:35:19.271Z,1.46
2016-12-31T10:36:19.228Z,1.52
2016-12-31T10:37:19.100Z,1.51
2016-12-31T10:38:19.197Z,1.37
2016-12-31T10:39:19.192Z,1.39
2016-12-31T10:40:19.156Z,1.43
2016-12-31T10:41:19.192Z,1.54
2016-12-31T10:42:19.231Z,1.5
2016-12-31T10:43:19.210Z,1.46
2016-12-31T10:44:19.409Z,1.58
2016-12-31T10:45:19.887Z,1.65
2016-12-31T10:46:19.290Z,1.37
2016-12-31T10:47:19.059Z,1.58
2016-12-31T10:48:19.127Z,1.51
2016-12-31T10:49:19.221Z,1.55
2016-12-31T10:50:19.140Z,1.47
2016-12-31T10:51:19.244Z,1.58
2016-12-31T10:52:19.298Z,1.57
2016-12-31T10:53:19.296Z,1.5
2016-12-31T10:54:19.329Z,1.52
2016-12-31T10:55:19.043Z,1.6
2016-12-31T10:56:19.022Z,1.6
2016-12-31T10:57:19.015Z,1.62
2016-12-31T10:58:19.008Z,1.42
2016-12-31T10:59:19.042Z,1.61
2016-12-31T11:00:19.121Z,1.61
2016-12-31T11:01:19.037Z,1.57
2016-12-31T11:02:19.027Z,1.58
2016-12-31T11:03:19.042Z,1.68
2016-12-31T11:04:19.028Z,1.52
2016-12-31T11:05:19.005Z,1.6
2016-12-31T11:06:19.021Z,1.65
2016-12-31T11:07:19.063Z,1.61
2016-12-31T11:08:19.042Z,1.52
2016-12-31T11:09:19.086Z,1.54
2016-12-31T11:10:19.018Z,1.62
2016-12-31T11:11:19.019Z,1.58
2016-12-31T11:12:19.021Z,1.57
2016-12-31T11:13:19.039Z,1.43
2016-12-31T11:14:19.011Z,1.6
2016-12-31T11:15:19.031Z,1.62
2016-12-31T11:16:19.016Z,1.62
2016-12-31T11:17:19.014Z,1.52
2016-12-31T11:18:19.021Z,1.57
2016-12-31T11:19:19.066Z,1.68
2016-12-31T11:20:19.008Z,1.75
2016-12-31T11:21:19.010Z,1.62
2016-12-31T11:22:19.069Z,1.55
2016-12-31T11:23:19.044Z,1.71
2016-12-31T11:24:19.051Z,1.5
2016-12-31T11:25:19.013Z,1.72
2016-12-31T11:26:19.056Z,1.65
2016-12-31T11:27:19.049Z,1.61
2016-12-31T11:28:19.027Z,1.78
2016-12-31T11:29:19.049Z,1.61
2016-12-31T11:30:19.032Z,1.65
2016-12-31T11:31:19.060Z,1.62
2016-12-31T11:32:19.136Z,1.68
2016-12-31T11:33:19.061Z,1.64
2016-12-31T11:34:19.025Z,1.73
2016-12-31T11:35:19.041Z,1.62
2016-12-31T11:36:19.032Z,1.6
2016-12-31T11:37:19.042Z,1.65
2016-12-31T11:38:19.016Z,1.6
2016-12-31T11:39:19.037Z,1.62
2016-12-31T11:40:19.030Z,1.58
2016-12-31T11:41:19.095Z,1.52
2016-12-31T11:42:19.031Z,1.6
2016-12-31T11:43:19.060Z,1.71
2016-12-31T11:44:19.066Z,1.64
2016-12-31T11:45:29.112Z,1.62
2016-12-31T11:46:19.033Z,1.71
2016-12-31T11:47:19.166Z,1.55
2016-12-31T11:48:19.064Z,1.64
2016-12-31T11:49:19.157Z,1.65
2016-12-31T11:50:19.194Z,1.68
2016-12-31T11:51:19.083Z,1.55
2016-12-31T11:52:19.373Z,1.64
2016-12-31T11:53:20.173Z,1.75
2016-12-31T11:54:19.274Z,1.76
2016-12-31T11:55:19.106Z,1.57
2016-12-31T11:56:19.195Z,1.78
2016-12-31T11:57:19.194Z,1.72
2016-12-31T11:58:19.068Z,1.73
2016-12-31T11:59:19.047Z,1.73
2016-12-31T12:00:19.111Z,1.82
2016-12-31T12:01:19.104Z,1.85
2016-12-31T12:02:19.112Z,1.64
2016-12-31T12:03:19.121Z,1.73
2016-12-31T12:04:19.126Z,1.72
2016-12-31T12:05:19.172Z,1.78
2016-12-31T12:06:19.031Z,1.85
2016-12-31T12:07:19.139Z,1.89
2016-12-31T12:08:19.182Z,1.9
2016-12-31T12:09:19.183Z,1.78
2016-12-31T12:10:19.248Z,1.79
2016-12-31T12:11:19.102Z,1.83
2016-12-31T12:12:19.111Z,1.94
2016-12-31T12:13:19.086Z,1.85
2016-12-31T12:14:19.049Z,1.93
2016-12-31T12:15:19.239Z,2.02
2016-12-31T12:16:19.195Z,1.93
2016-12-31T12:17:19.127Z,1.97
2016-12-31T12:18:19.166Z,1.97
2016-12-31T12:19:19.114Z,1.89
2016-12-31T12:20:19.108Z,1.91
2016-12-31T12:21:19.107Z,1.85
2016-12-31T12:22:19.060Z,1.89
2016-12-31T12:23:19.060Z,1.83
2016-12-31T12:24:19.067Z,1.98
2016-12-31T12:25:19.088Z,1.83
2016-12-31T12:26:19.107Z,2.01
2016-12-31T12:27:19.058Z,1.9
2016-12-31T12:28:19.081Z,1.97
2016-12-31T12:29:19.078Z,1.94
2016-12-31T12:30:19.082Z,1.87
2016-12-31T12:31:19.068Z,1.9
2016-12-31T12:32:19.122Z,1.93
2016-12-31T12:33:19.064Z,1.91
2016-12-31T12:34:19.116Z,1.94
2016-12-31T12:35:19.109Z,1.91
2016-12-31T12:36:19.083Z,1.99
2016-12-31T12:37:19.407Z,1.89
2016-12-31T12:38:19.201Z,1.98
2016-12-31T12:39:21.777Z,1.89
2016-12-31T12:40:26.146Z,2.02
2016-12-31T12:41:25.584Z,1.87
2016-12-31T12:42:26.383Z,1.93
2016-12-31T12:43:25.902Z,1.97
2016-12-31T12:44:25.025Z,1.94
2016-12-31T12:45:26.386Z,1.94
2016-12-31T12:46:25.843Z,1.99
2016-12-31T12:47:26.974Z,1.93
2016-12-31T12:48:24.332Z,2.06
2016-12-31T12:49:19.286Z,2.02
2016-12-31T12:50:25.177Z,1.93
2016-12-31T12:51:23.064Z,1.93
2016-12-31T12:52:19.076Z,1.89
2016-12-31T12:53:19.132Z,1.9
2016-12-31T12:54:19.106Z,1.87
2016-12-31T12:55:19.130Z,1.99
2016-12-31T12:56:19.085Z,1.93
2016-12-31T12:57:19.081Z,1.97
2016-12-31T12:58:19.102Z,1.91
2016-12-31T12:59:19.111Z,1.91
2016-12-31T13:00:19.133Z,1.93
2016-12-31T13:01:19.138Z,2.01
2016-12-31T13:02:19.175Z,1.99
2016-12-31T13:03:19.126Z,2.06
2016-12-31T13:04:19.134Z,2.16
2016-12-31T13:05:19.129Z,2.04
2016-12-31T13:06:19.918Z,1.9
2016-12-31T13:07:19.093Z,1.99
2016-12-31T13:08:19.101Z,2.01
2016-12-31T13:09:19.100Z,2.04
2016-12-31T13:10:19.095Z,2.08
2016-12-31T13:11:19.093Z,2.06
2016-12-31T13:12:19.096Z,2.15
2016-12-31T13:13:19.229Z,2.13
2016-12-31T13:14:19.237Z,2.17
2016-12-31T13:15:19.358Z,2.17
2016-12-31T13:16:19.329Z,2.12